Time;durP1;ratioP1;P1;durP2;ratioP2;P2;SDS_P1;SDS_P2;PMS_P1;PMS_P2;Temp;Humidity;BMP_temperature;BMP_pressure;BME280_temperature;BME280_humidity;BME280_pressure;Samples;Min_cycle;Max_cycle;Signal;HPM_P1;HPM_P2
2023/03/10 00:00:41;;;;;;;0.50;0.30;;;11.20;99.90;;;;;;4972529;28;20226;-60
2023/03/10 00:03:08;;;;;;;0.50;0.30;;;11.20;99.90;;;;;;4972908;28;20206;-60
2023/03/10 00:05:38;;;;;;;0.50;0.30;;;11.20;99.90;;;;;;4972735;28;20353;-61
2023/03/10 00:08:07;;;;;;;0.80;0.60;;;11.20;99.90;;;;;;4966762;28;20689;-61
2023/03/10 00:10:35;;;;;;;0.50;0.30;;;11.20;99.90;;;;;;4965219;28;20222;-61
2023/03/10 00:13:02;;;;;;;0.50;0.40;;;11.20;99.90;;;;;;4962063;28;20229;-61
2023/03/10 00:15:31;;;;;;;0.50;0.30;;;11.20;99.90;;;;;;4975235;28;20243;-61
2023/03/10 00:17:59;;;;;;;0.50;0.30;;;11.20;99.90;;;;;;4965929;28;20673;-61
2023/03/10 00:20:27;;;;;;;0.50;0.30;;;11.20;99.90;;;;;;4965142;28;20218;-61
2023/03/10 00:22:56;;;;;;;0.50;0.30;;;11.20;99.90;;;;;;4970007;28;20282;-61
2023/03/10 00:25:24;;;;;;;0.60;0.45;;;11.20;99.90;;;;;;4968523;28;20212;-61
2023/03/10 00:27:52;;;;;;;0.50;0.30;;;11.20;99.90;;;;;;4985859;28;20225;-61
2023/03/10 00:30:20;;;;;;;0.50;0.30;;;11.20;99.90;;;;;;4973327;28;20596;-60
2023/03/10 00:32:49;;;;;;;0.50;0.30;;;11.20;99.90;;;;;;4969515;28;20325;-61
2023/03/10 00:35:17;;;;;;;0.50;0.40;;;11.20;99.90;;;;;;4970456;28;20198;-61
2023/03/10 00:37:45;;;;;;;0.50;0.30;;;11.20;99.90;;;;;;4966179;28;20198;-62
2023/03/10 00:40:15;;;;;;;0.50;0.30;;;11.20;99.90;;;;;;4968779;28;20246;-61
2023/03/10 00:42:43;;;;;;;0.50;0.30;;;11.20;99.90;;;;;;4975917;28;20205;-60
2023/03/10 00:45:11;;;;;;;0.50;0.30;;;11.20;99.90;;;;;;4976940;28;20282;-61
2023/03/10 00:47:39;;;;;;;0.50;0.30;;;11.20;99.90;;;;;;4978236;28;20198;-61
2023/03/10 00:50:08;;;;;;;0.65;0.43;;;11.20;99.90;;;;;;4971018;28;20229;-61
2023/03/10 00:52:36;;;;;;;0.50;0.30;;;11.10;99.90;;;;;;4975973;28;20230;-61
2023/03/10 00:55:04;;;;;;;0.50;0.30;;;11.10;99.90;;;;;;4962971;28;20203;-61
2023/03/10 00:57:35;;;;;;;0.50;0.30;;;11.10;99.90;;;;;;4976678;28;20290;-61
2023/03/10 01:00:05;;;;;;;0.50;0.30;;;11.10;99.90;;;;;;4974751;28;20715;-61
2023/03/10 01:02:33;;;;;;;0.50;0.30;;;11.10;99.90;;;;;;4974463;28;20650;-61
2023/03/10 01:05:01;;;;;;;0.50;0.30;;;11.10;99.90;;;;;;4971093;28;20215;-61
2023/03/10 01:07:29;;;;;;;0.50;0.30;;;11.10;99.90;;;;;;4959181;28;20206;-61
2023/03/10 01:09:57;;;;;;;0.50;0.30;;;11.10;99.90;;;;;;4966185;28;20206;-62
2023/03/10 01:12:24;;;;;;;0.60;0.50;;;11.10;99.90;;;;;;4973505;28;20204;-61
2023/03/10 01:14:54;;;;;;;0.50;0.30;;;11.10;99.90;;;;;;4970522;28;20253;-61
2023/03/10 01:17:21;;;;;;;0.50;0.40;;;11.10;99.90;;;;;;4975983;28;20768;-61
2023/03/10 01:19:49;;;;;;;0.60;0.43;;;11.10;99.90;;;;;;4971648;28;20280;-61
2023/03/10 01:22:17;;;;;;;0.52;0.38;;;11.10;99.90;;;;;;4985009;28;20225;-61
2023/03/10 01:24:45;;;;;;;0.50;0.40;;;11.10;99.90;;;;;;4980075;28;20665;-60
2023/03/10 01:27:13;;;;;;;0.50;0.30;;;11.10;99.90;;;;;;4972071;28;20202;-61
2023/03/10 01:29:41;;;;;;;0.60;0.50;;;11.10;99.90;;;;;;4979785;28;20701;-62
2023/03/10 01:32:10;;;;;;;0.50;0.40;;;11.10;99.90;;;;;;4982657;28;20206;-61
2023/03/10 01:34:38;;;;;;;0.50;0.30;;;11.10;99.90;;;;;;4982014;28;20210;-61
2023/03/10 01:37:06;;;;;;;0.50;0.30;;;11.00;99.90;;;;;;4975021;28;20198;-60
2023/03/10 01:39:33;;;;;;;0.50;0.30;;;11.00;99.90;;;;;;4979436;28;20198;-61
2023/03/10 01:42:01;;;;;;;0.50;0.30;;;10.90;99.90;;;;;;4982667;28;20317;-61
2023/03/10 01:44:29;;;;;;;0.50;0.30;;;10.90;99.90;;;;;;4979362;28;20206;-61
2023/03/10 01:46:58;;;;;;;0.50;0.30;;;10.90;99.90;;;;;;4965013;28;20213;-61
2023/03/10 01:49:31;;;;;;;0.50;0.40;;;10.80;99.90;;;;;;4972845;28;20199;-60
2023/03/10 01:52:03;;;;;;;0.50;0.30;;;10.80;99.90;;;;;;4982242;28;20301;-60
2023/03/10 01:54:38;;;;;;;0.60;0.60;;;10.70;99.90;;;;;;4972884;28;20216;-60
2023/03/10 01:57:07;;;;;;;0.50;0.38;;;10.70;99.90;;;;;;4983566;28;20222;-60
2023/03/10 01:59:35;;;;;;;0.70;0.60;;;10.70;99.90;;;;;;4977020;28;20658;-62
2023/03/10 02:02:04;;;;;;;0.50;0.40;;;10.70;99.90;;;;;;4971317;28;20246;-61
2023/03/10 02:04:42;;;;;;;0.50;0.30;;;10.70;99.90;;;;;;4984436;28;20221;-61
2023/03/10 02:07:12;;;;;;;0.50;0.40;;;10.60;99.90;;;;;;4974590;28;20198;-61
2023/03/10 02:09:44;;;;;;;0.50;0.30;;;10.70;99.90;;;;;;4971280;28;20190;-60
2023/03/10 02:12:13;;;;;;;0.50;0.30;;;10.60;99.90;;;;;;4975983;28;20202;-61
2023/03/10 02:14:43;;;;;;;0.50;0.40;;;10.60;99.90;;;;;;4969212;28;20250;-62
2023/03/10 02:17:15;;;;;;;0.50;0.35;;;10.60;99.90;;;;;;4974208;28;20580;-61
2023/03/10 02:20:09;;;;;;;0.50;0.30;;;10.60;99.90;;;;;;4976592;28;20221;-61
2023/03/10 02:22:38;;;;;;;0.50;0.30;;;10.60;99.90;;;;;;4985315;28;20198;-60
2023/03/10 02:25:14;;;;;;;0.50;0.30;;;10.50;99.90;;;;;;4974137;28;20198;-61
2023/03/10 02:27:43;;;;;;;0.60;0.40;;;10.50;99.90;;;;;;4984517;28;20401;-61
2023/03/10 02:30:15;;;;;;;0.50;0.40;;;10.50;99.90;;;;;;4968608;28;20230;-62
2023/03/10 02:32:46;;;;;;;0.50;0.30;;;10.50;99.90;;;;;;4981453;28;20365;-60
2023/03/10 02:35:15;;;;;;;0.50;0.30;;;10.50;99.90;;;;;;4964660;28;20221;-60
2023/03/10 02:37:43;;;;;;;0.50;0.30;;;10.60;99.90;;;;;;4978550;28;20198;-61
2023/03/10 02:40:32;;;;;;;0.50;0.30;;;10.50;99.90;;;;;;4966492;28;20222;-61
2023/03/10 02:43:05;;;;;;;0.70;0.50;;;10.50;99.90;;;;;;4973796;28;20562;-61
2023/03/10 02:45:36;;;;;;;0.50;0.40;;;10.50;99.90;;;;;;4974386;28;20632;-60
2023/03/10 02:48:04;;;;;;;0.50;0.30;;;10.50;99.90;;;;;;4976952;28;20202;-61
2023/03/10 02:50:37;;;;;;;0.50;0.30;;;10.50;99.90;;;;;;4968226;28;20233;-60
2023/03/10 02:53:08;;;;;;;0.50;0.30;;;10.50;99.90;;;;;;4983838;28;20207;-61
2023/03/10 02:55:36;;;;;;;0.50;0.30;;;10.50;99.90;;;;;;4967687;28;20297;-60
2023/03/10 02:58:06;;;;;;;0.50;0.30;;;10.50;99.90;;;;;;4983327;28;20202;-60
2023/03/10 03:00:37;;;;;;;0.50;0.30;;;10.50;99.90;;;;;;4963830;28;20229;-60
2023/03/10 03:03:05;;;;;;;0.50;0.30;;;10.50;99.90;;;;;;4976621;28;20214;-61
2023/03/10 03:05:33;;;;;;;0.50;0.40;;;10.40;99.90;;;;;;4979950;28;20289;-61
2023/03/10 03:08:01;;;;;;;0.50;0.30;;;10.20;99.90;;;;;;4962946;28;20215;-61
2023/03/10 03:10:29;;;;;;;0.50;0.30;;;10.10;99.90;;;;;;4967313;28;20224;-61
2023/03/10 03:12:57;;;;;;;0.50;0.30;;;10.00;99.90;;;;;;4965693;28;20218;-61
2023/03/10 03:15:28;;;;;;;0.50;0.38;;;10.00;99.90;;;;;;4972651;28;20252;-61
2023/03/10 03:17:57;;;;;;;0.50;0.40;;;10.00;99.90;;;;;;4967788;28;20662;-61
2023/03/10 03:20:25;;;;;;;0.50;0.30;;;10.00;99.90;;;;;;4977295;28;20258;-61
2023/03/10 03:22:54;;;;;;;0.50;0.30;;;10.00;99.90;;;;;;4975040;28;20218;-61
2023/03/10 03:25:23;;;;;;;0.50;0.40;;;10.00;99.90;;;;;;4966621;28;20199;-60
2023/03/10 03:27:51;;;;;;;0.50;0.40;;;10.00;99.90;;;;;;4975714;28;22074;-61
2023/03/10 03:30:21;;;;;;;0.57;0.38;;;10.00;99.90;;;;;;4980802;28;20306;-61
2023/03/10 03:32:51;;;;;;;0.50;0.40;;;10.00;99.90;;;;;;4969642;28;20250;-61
2023/03/10 03:35:22;;;;;;;1.80;0.40;;;10.00;99.90;;;;;;4968959;28;20217;-61
2023/03/10 03:37:51;;;;;;;0.52;0.43;;;10.00;99.90;;;;;;4981736;28;20564;-61
2023/03/10 03:40:19;;;;;;;0.50;0.30;;;10.00;99.90;;;;;;4976050;28;20231;-61
2023/03/10 03:42:49;;;;;;;0.50;0.30;;;10.00;99.90;;;;;;4973669;28;20223;-61
2023/03/10 03:45:19;;;;;;;0.50;0.30;;;10.00;99.90;;;;;;4967080;28;20199;-62
2023/03/10 03:47:47;;;;;;;0.50;0.30;;;10.00;99.90;;;;;;4978131;28;20685;-61
2023/03/10 03:50:19;;;;;;;0.50;0.40;;;10.00;99.90;;;;;;4967388;28;20224;-61
2023/03/10 03:52:47;;;;;;;0.50;0.30;;;10.00;99.90;;;;;;4973934;28;20277;-62
2023/03/10 03:55:17;;;;;;;0.50;0.30;;;10.00;99.90;;;;;;4977649;28;20214;-61
2023/03/10 03:57:45;;;;;;;0.50;0.40;;;10.00;99.90;;;;;;4979983;28;20552;-62
2023/03/10 04:00:18;;;;;;;0.50;0.40;;;10.00;99.90;;;;;;4966640;28;20247;-61
2023/03/10 04:02:46;;;;;;;0.50;0.30;;;10.00;99.90;;;;;;4965796;28;20204;-63
2023/03/10 04:05:16;;;;;;;0.50;0.30;;;10.00;99.90;;;;;;4965886;28;20674;-62
2023/03/10 04:07:45;;;;;;;0.50;0.40;;;10.00;99.90;;;;;;4971541;28;20281;-62
2023/03/10 04:10:14;;;;;;;0.60;0.40;;;10.00;99.90;;;;;;4964829;28;20225;-62
2023/03/10 04:12:42;;;;;;;0.50;0.30;;;10.10;99.90;;;;;;4967285;28;20216;-61
2023/03/10 04:15:11;;;;;;;0.50;0.40;;;10.10;99.90;;;;;;4967698;28;20240;-62
2023/03/10 04:17:39;;;;;;;0.50;0.30;;;10.10;99.90;;;;;;4970629;28;20288;-62
2023/03/10 04:20:12;;;;;;;0.50;0.30;;;10.10;99.90;;;;;;4975938;28;20308;-61
2023/03/10 04:22:42;;;;;;;0.50;0.40;;;10.10;99.90;;;;;;4978615;28;20261;-61
2023/03/10 04:25:10;;;;;;;0.50;0.30;;;10.10;99.90;;;;;;4969994;28;20217;-62
2023/03/10 04:27:38;;;;;;;0.50;0.40;;;10.10;99.90;;;;;;4986699;28;20657;-62
2023/03/10 04:30:07;;;;;;;0.50;0.30;;;10.00;99.90;;;;;;4975085;28;20312;-62
2023/03/10 04:32:35;;;;;;;0.50;0.40;;;10.00;99.90;;;;;;4976730;28;20236;-62
2023/03/10 04:35:04;;;;;;;0.50;0.30;;;10.00;99.90;;;;;;4974015;28;20242;-62
2023/03/10 04:37:32;;;;;;;0.50;0.30;;;10.00;99.90;;;;;;4965249;28;20624;-62
2023/03/10 04:40:08;;;;;;;0.50;0.30;;;10.00;99.90;;;;;;4964399;28;20249;-62
2023/03/10 04:42:36;;;;;;;0.60;0.40;;;10.00;99.90;;;;;;4966044;28;20208;-62
2023/03/10 04:45:05;;;;;;;0.50;0.40;;;10.00;99.90;;;;;;4969549;28;20205;-61
2023/03/10 04:47:34;;;;;;;0.50;0.30;;;10.00;99.90;;;;;;4979468;28;20623;-61
2023/03/10 04:50:02;;;;;;;0.50;0.40;;;10.00;99.90;;;;;;4968209;28;20257;-62
2023/03/10 04:52:30;;;;;;;0.50;0.30;;;9.90;99.90;;;;;;4971403;28;20201;-62
2023/03/10 04:54:58;;;;;;;0.50;0.30;;;9.90;99.90;;;;;;4970903;28;20222;-62
2023/03/10 04:57:27;;;;;;;0.50;0.30;;;9.90;99.90;;;;;;4974235;28;20201;-61
2023/03/10 04:59:55;;;;;;;0.60;0.50;;;9.90;99.90;;;;;;4964961;28;20297;-61
2023/03/10 05:02:23;;;;;;;0.50;0.30;;;9.90;99.90;;;;;;4969829;28;20337;-61
2023/03/10 05:04:51;;;;;;;0.50;0.30;;;9.90;99.90;;;;;;4964925;28;20207;-62
2023/03/10 05:07:20;;;;;;;0.50;0.30;;;9.90;99.90;;;;;;4967716;28;20206;-62
2023/03/10 05:09:48;;;;;;;0.55;0.40;;;9.90;99.90;;;;;;4966196;28;20203;-62
2023/03/10 05:12:15;;;;;;;0.57;0.40;;;9.90;99.90;;;;;;4972315;28;20223;-62
2023/03/10 05:14:45;;;;;;;0.70;0.70;;;9.90;99.90;;;;;;4972084;28;20677;-62
2023/03/10 05:17:13;;;;;;;0.60;0.43;;;9.80;99.90;;;;;;4973569;28;20226;-62
2023/03/10 05:19:41;;;;;;;0.50;0.30;;;9.90;99.90;;;;;;4964649;28;20285;-61
2023/03/10 05:22:11;;;;;;;0.50;0.30;;;9.90;99.90;;;;;;4963071;28;20211;-62
2023/03/10 05:24:39;;;;;;;0.50;0.30;;;9.90;99.90;;;;;;4962059;28;20249;-62
2023/03/10 05:27:07;;;;;;;0.50;0.40;;;9.80;99.90;;;;;;4969287;28;20202;-62
2023/03/10 05:29:37;;;;;;;0.50;0.30;;;9.90;99.90;;;;;;4969009;28;20214;-62
2023/03/10 05:32:07;;;;;;;0.50;0.30;;;9.90;99.90;;;;;;4971187;28;20314;-62
2023/03/10 05:34:35;;;;;;;0.50;0.30;;;9.90;99.90;;;;;;4971536;28;20240;-62
2023/03/10 05:37:03;;;;;;;0.50;0.30;;;10.00;99.90;;;;;;4974846;28;20312;-62
2023/03/10 05:39:31;;;;;;;0.50;0.30;;;10.00;99.90;;;;;;4972101;28;20286;-61
2023/03/10 05:41:59;;;;;;;1.30;0.80;;;9.90;99.90;;;;;;4975171;28;20665;-61
2023/03/10 05:44:27;;;;;;;0.50;0.40;;;9.90;99.90;;;;;;4979911;28;20305;-61
2023/03/10 05:46:55;;;;;;;0.50;0.30;;;9.90;99.90;;;;;;4975132;28;20227;-62
2023/03/10 05:49:25;;;;;;;0.50;0.30;;;10.00;99.90;;;;;;4972620;28;21883;-63
2023/03/10 05:51:52;;;;;;;0.50;0.30;;;10.00;99.90;;;;;;4968295;28;20253;-62
2023/03/10 05:54:20;;;;;;;0.50;0.30;;;10.00;99.90;;;;;;4969713;28;20205;-62
2023/03/10 05:56:48;;;;;;;0.50;0.40;;;10.00;99.90;;;;;;4963777;28;20223;-63
2023/03/10 05:59:16;;;;;;;0.50;0.35;;;10.00;99.90;;;;;;4966310;28;20215;-62
2023/03/10 06:01:44;;;;;;;0.50;0.35;;;10.00;99.90;;;;;;4971098;28;20235;-62
2023/03/10 06:04:12;;;;;;;0.50;0.40;;;10.00;99.90;;;;;;4968834;28;20206;-62
2023/03/10 06:06:41;;;;;;;0.50;0.30;;;9.90;99.90;;;;;;4970133;28;20206;-62
2023/03/10 06:09:09;;;;;;;0.60;0.50;;;9.80;99.90;;;;;;4969622;28;20569;-63
2023/03/10 06:11:37;;;;;;;0.50;0.30;;;9.80;99.90;;;;;;4966236;28;20308;-62
2023/03/10 06:14:05;;;;;;;0.50;0.40;;;9.80;99.90;;;;;;4967223;28;20229;-63
2023/03/10 06:16:32;;;;;;;0.70;0.40;;;9.70;99.90;;;;;;4970624;28;20712;-63
2023/03/10 06:19:01;;;;;;;0.50;0.30;;;9.70;99.90;;;;;;4968018;28;20207;-62
2023/03/10 06:21:28;;;;;;;0.60;0.60;;;9.70;99.90;;;;;;4965772;28;20224;-62
2023/03/10 06:23:58;;;;;;;0.50;0.40;;;9.80;99.90;;;;;;4968471;28;20233;-62
2023/03/10 06:26:26;;;;;;;0.50;0.40;;;9.80;99.90;;;;;;4971651;28;20223;-62
2023/03/10 06:28:53;;;;;;;0.50;0.40;;;9.80;99.90;;;;;;4964861;28;20198;-62
2023/03/10 06:31:23;;;;;;;0.70;0.50;;;9.80;99.90;;;;;;4967999;28;22073;-62
2023/03/10 06:33:51;;;;;;;0.50;0.30;;;9.80;99.90;;;;;;4962834;28;20238;-63
2023/03/10 06:36:20;;;;;;;0.50;0.30;;;9.80;99.90;;;;;;4974134;28;20824;-62
2023/03/10 06:38:49;;;;;;;0.50;0.30;;;9.90;99.90;;;;;;4966724;28;20250;-63
2023/03/10 06:41:19;;;;;;;0.50;0.30;;;9.90;99.90;;;;;;4972233;28;20632;-62
2023/03/10 06:43:47;;;;;;;0.52;0.38;;;9.90;99.90;;;;;;4967028;28;20653;-62
2023/03/10 06:46:15;;;;;;;0.50;0.50;;;9.90;99.90;;;;;;4970218;28;20229;-62
2023/03/10 06:48:44;;;;;;;0.50;0.30;;;9.80;99.90;;;;;;4972973;28;20234;-63
2023/03/10 06:51:15;;;;;;;0.50;0.30;;;9.80;99.90;;;;;;4970515;28;20226;-62
2023/03/10 06:53:43;;;;;;;0.50;0.40;;;9.80;99.90;;;;;;4967492;28;20199;-62
2023/03/10 06:56:13;;;;;;;0.50;0.40;;;9.70;99.90;;;;;;4965707;28;20753;-62
2023/03/10 06:58:43;;;;;;;0.50;0.30;;;9.70;99.90;;;;;;4962024;28;20282;-62
2023/03/10 07:01:21;;;;;;;0.50;0.30;;;9.70;99.90;;;;;;4965092;28;20305;-62
2023/03/10 07:03:49;;;;;;;0.50;0.30;;;9.60;99.90;;;;;;4963283;28;20195;-62
2023/03/10 07:06:17;;;;;;;0.50;0.30;;;9.60;99.90;;;;;;4972778;28;20569;-62
2023/03/10 07:08:45;;;;;;;0.70;0.40;;;9.60;99.90;;;;;;4974455;28;20628;-62
2023/03/10 07:11:13;;;;;;;0.50;0.45;;;9.60;99.90;;;;;;4971068;28;20309;-63
2023/03/10 07:13:43;;;;;;;0.70;0.60;;;9.50;99.90;;;;;;4976337;28;20198;-62
2023/03/10 07:16:10;;;;;;;0.50;0.30;;;9.50;99.90;;;;;;4979739;28;20230;-62
2023/03/10 07:18:38;;;;;;;0.90;0.60;;;9.60;99.90;;;;;;4973344;28;20193;-63
2023/03/10 07:21:07;;;;;;;0.90;0.90;;;9.60;99.90;;;;;;4973316;28;20433;-63
2023/03/10 07:23:35;;;;;;;0.50;0.50;;;9.50;99.90;;;;;;4964912;28;20285;-63
2023/03/10 07:26:07;;;;;;;1.42;0.73;;;9.50;99.90;;;;;;4959570;28;20219;-62
2023/03/10 07:28:36;;;;;;;2.47;0.60;;;9.50;99.90;;;;;;4980854;28;20199;-62
2023/03/10 07:31:07;;;;;;;0.50;0.40;;;9.50;99.90;;;;;;4988479;28;20304;-62
2023/03/10 07:33:35;;;;;;;0.50;0.40;;;9.50;99.90;;;;;;4992552;28;20260;-62
2023/03/10 07:36:05;;;;;;;0.50;0.30;;;9.50;99.90;;;;;;4992536;28;20213;-62
2023/03/10 07:38:33;;;;;;;0.50;0.30;;;9.50;99.90;;;;;;4992809;28;20206;-62
2023/03/10 07:41:01;;;;;;;0.50;0.30;;;9.50;99.90;;;;;;4983744;28;20772;-62
2023/03/10 07:43:29;;;;;;;0.60;0.40;;;9.50;99.90;;;;;;4965407;28;20199;-62
2023/03/10 07:45:57;;;;;;;0.50;0.40;;;9.60;99.90;;;;;;4973150;28;20237;-62
2023/03/10 07:48:27;;;;;;;1.15;0.40;;;9.60;99.90;;;;;;4972870;28;20696;-62
2023/03/10 07:50:56;;;;;;;0.50;0.35;;;9.60;99.90;;;;;;4972729;28;20655;-62
2023/03/10 07:53:25;;;;;;;0.85;0.60;;;9.60;99.90;;;;;;4972831;28;20202;-62
2023/03/10 07:55:53;;;;;;;0.50;0.30;;;9.70;99.90;;;;;;4973053;28;20230;-62
2023/03/10 07:58:21;;;;;;;0.50;0.40;;;9.70;99.90;;;;;;4972855;28;20233;-62
2023/03/10 08:00:55;;;;;;;0.50;0.30;;;9.80;99.90;;;;;;4972580;28;20298;-62
2023/03/10 08:03:23;;;;;;;0.70;0.65;;;9.80;99.90;;;;;;4972742;28;20195;-62
2023/03/10 08:05:53;;;;;;;0.50;0.30;;;9.90;99.90;;;;;;4972921;28;20206;-61
2023/03/10 08:08:21;;;;;;;0.50;0.30;;;9.90;99.90;;;;;;4972882;28;20580;-62
2023/03/10 08:10:49;;;;;;;0.50;0.30;;;9.80;99.90;;;;;;4972528;28;20293;-61
2023/03/10 08:13:20;;;;;;;0.60;0.57;;;9.90;99.90;;;;;;4972399;28;20678;-61
2023/03/10 08:15:48;;;;;;;0.50;0.40;;;9.90;99.90;;;;;;4972841;28;20250;-61
2023/03/10 08:18:16;;;;;;;0.50;0.40;;;9.80;99.90;;;;;;4972475;28;20241;-62
2023/03/10 08:20:44;;;;;;;0.50;0.40;;;9.90;99.90;;;;;;4972414;28;20293;-62
2023/03/10 08:23:13;;;;;;;1.50;1.13;;;9.90;99.90;;;;;;4972371;28;20216;-62
2023/03/10 08:25:41;;;;;;;0.50;0.30;;;9.90;99.90;;;;;;4972421;28;20198;-62
2023/03/10 08:28:09;;;;;;;0.50;0.40;;;9.90;99.90;;;;;;4972403;28;20202;-62
2023/03/10 08:30:38;;;;;;;0.60;0.50;;;9.90;99.90;;;;;;4972316;28;20222;-62
2023/03/10 08:33:27;;;;;;;0.50;0.30;;;9.90;99.90;;;;;;4972096;28;20235;-62
2023/03/10 08:36:03;;;;;;;0.50;0.30;;;10.00;99.90;;;;;;4972418;28;20246;-62
2023/03/10 08:38:32;;;;;;;0.65;0.50;;;10.10;99.90;;;;;;4972341;28;20217;-62
2023/03/10 08:41:09;;;;;;;0.50;0.30;;;10.10;99.90;;;;;;4971552;28;20304;-62
2023/03/10 08:43:38;;;;;;;0.50;0.30;;;10.20;99.90;;;;;;4972114;28;20562;-62
2023/03/10 08:46:07;;;;;;;0.50;0.30;;;10.20;99.90;;;;;;4972347;28;20584;-62
2023/03/10 08:48:35;;;;;;;0.98;0.98;;;10.40;99.90;;;;;;4972327;28;20300;-62
2023/03/10 08:51:04;;;;;;;0.50;0.30;;;10.40;99.90;;;;;;4971724;28;20779;-62
2023/03/10 08:53:35;;;;;;;0.60;0.40;;;10.50;99.90;;;;;;4972214;28;20245;-61
2023/03/10 08:56:04;;;;;;;0.50;0.30;;;10.50;99.90;;;;;;4972326;28;20213;-61
2023/03/10 08:58:32;;;;;;;0.50;0.40;;;10.50;99.90;;;;;;4971971;28;20306;-62
2023/03/10 09:01:00;;;;;;;0.80;0.63;;;10.60;99.90;;;;;;4971857;28;20227;-61
2023/03/10 09:03:28;;;;;;;5.20;0.75;;;10.60;99.90;;;;;;4971964;28;20202;-61
2023/03/10 09:05:58;;;;;;;0.50;0.43;;;10.70;99.90;;;;;;4972444;28;20604;-61
2023/03/10 09:08:26;;;;;;;0.50;0.30;;;10.70;99.90;;;;;;4972206;28;20209;-61
2023/03/10 09:10:56;;;;;;;0.50;0.40;;;10.80;99.90;;;;;;4971770;28;20237;-61
2023/03/10 09:13:24;;;;;;;0.50;0.30;;;10.80;99.90;;;;;;4972035;28;20344;-62
2023/03/10 09:15:51;;;;;;;0.50;0.30;;;11.00;99.90;;;;;;4972043;28;20289;-61
2023/03/10 09:18:20;;;;;;;0.50;0.30;;;11.00;99.90;;;;;;4972236;28;20242;-61
2023/03/10 09:20:48;;;;;;;0.50;0.30;;;10.90;99.90;;;;;;4971903;28;20789;-61
2023/03/10 09:23:17;;;;;;;0.50;0.30;;;10.90;99.90;;;;;;4971945;28;20199;-61
2023/03/10 09:25:45;;;;;;;0.70;0.68;;;10.80;99.90;;;;;;4972231;28;20252;-61
2023/03/10 09:28:14;;;;;;;1.00;0.80;;;10.80;99.90;;;;;;4972099;28;20209;-61
2023/03/10 09:30:46;;;;;;;0.50;0.40;;;10.70;99.90;;;;;;4971878;28;20229;-61
2023/03/10 09:33:17;;;;;;;0.50;0.30;;;10.60;99.90;;;;;;4971572;28;20849;-61
2023/03/10 09:35:46;;;;;;;0.50;0.30;;;10.60;99.90;;;;;;5000542;23;20276;-67
2023/03/10 09:38:29;;;;;;;0.50;0.30;;;10.70;99.90;;;;;;4979770;28;20230;-67
2023/03/10 09:41:07;;;;;;;0.50;0.30;;;10.70;99.90;;;;;;4977959;28;20649;-67
2023/03/10 09:43:40;;;;;;;0.50;0.30;;;10.80;99.90;;;;;;4967462;28;20209;-67
2023/03/10 09:46:18;;;;;;;0.50;0.30;;;10.90;99.90;;;;;;4982731;28;20230;-69
2023/03/10 09:48:52;;;;;;;0.50;0.35;;;11.00;99.90;;;;;;4979757;28;20619;-68
2023/03/10 09:51:22;;;;;;;0.50;0.40;;;11.00;99.90;;;;;;4980605;28;20703;-67
2023/03/10 09:54:18;;;;;;;0.50;0.40;;;11.10;99.90;;;;;;4984928;28;20246;-66
2023/03/10 09:56:46;;;;;;;0.60;0.57;;;11.20;99.90;;;;;;4976822;28;20265;-66
2023/03/10 09:59:28;;;;;;;0.50;0.30;;;11.10;99.90;;;;;;4983449;28;20604;-67
2023/03/10 10:01:58;;;;;;;0.50;0.30;;;11.10;99.90;;;;;;4985870;28;20672;-67
2023/03/10 10:04:31;;;;;;;0.50;0.30;;;11.10;99.90;;;;;;4983957;28;20568;-66
2023/03/10 10:07:00;;;;;;;0.50;0.30;;;11.20;99.90;;;;;;4982943;28;20221;-68
2023/03/10 10:09:40;;;;;;;0.50;0.40;;;11.20;99.90;;;;;;4985087;28;20684;-67
2023/03/10 10:12:12;;;;;;;0.50;0.30;;;11.10;99.90;;;;;;4983967;28;20216;-67
2023/03/10 10:14:42;;;;;;;0.65;0.65;;;11.10;99.90;;;;;;4978746;28;20292;-67
2023/03/10 10:17:36;;;;;;;0.50;0.30;;;11.00;99.90;;;;;;4984175;28;20723;-66
2023/03/10 10:20:19;;;;;;;0.50;0.30;;;11.10;99.90;;;;;;4983032;28;20634;-68
2023/03/10 10:22:47;;;;;;;0.70;0.38;;;11.20;99.90;;;;;;4985870;28;20209;-66
2023/03/10 10:25:19;;;;;;;0.70;0.57;;;11.10;99.90;;;;;;4985039;28;20731;-67
2023/03/10 10:27:50;;;;;;;0.50;0.30;;;11.00;99.90;;;;;;4982613;28;20693;-67
2023/03/10 10:30:32;;;;;;;0.50;0.30;;;11.00;99.90;;;;;;4983213;28;20744;-67
2023/03/10 10:33:02;;;;;;;0.50;0.30;;;11.00;99.90;;;;;;4985501;28;20301;-67
2023/03/10 10:35:32;;;;;;;0.50;0.30;;;11.00;99.90;;;;;;4982706;28;20234;-67
2023/03/10 10:38:03;;;;;;;0.60;0.40;;;11.30;99.90;;;;;;4982316;28;20266;-67
2023/03/10 10:40:34;;;;;;;0.50;0.30;;;11.40;99.90;;;;;;4981928;28;20214;-68
2023/03/10 10:43:06;;;;;;;0.50;0.30;;;11.50;99.90;;;;;;4974035;28;20218;-67
2023/03/10 10:45:39;;;;;;;0.50;0.40;;;12.10;99.90;;;;;;4981871;28;20234;-67
2023/03/10 10:48:27;;;;;;;0.50;0.30;;;12.80;99.90;;;;;;4982207;28;20302;-67
2023/03/10 10:50:55;;;;;;;0.50;0.30;;;13.30;99.90;;;;;;4981971;28;20665;-68
2023/03/10 10:53:25;;;;;;;0.50;0.30;;;13.70;99.90;;;;;;4983102;28;20225;-67
2023/03/10 10:56:02;;;;;;;0.50;0.30;;;13.90;99.90;;;;;;4985222;28;20257;-67
2023/03/10 10:58:34;;;;;;;0.50;0.40;;;14.20;99.90;;;;;;4982634;28;20680;-67
2023/03/10 11:01:05;;;;;;;0.50;0.30;;;13.80;99.90;;;;;;4981971;28;20207;-67
2023/03/10 11:03:35;;;;;;;0.50;0.30;;;13.80;99.90;;;;;;4984026;28;20565;-67
2023/03/10 11:06:14;;;;;;;0.50;0.40;;;14.40;99.90;;;;;;4985043;28;20233;-67
2023/03/10 11:08:49;;;;;;;0.70;0.40;;;14.70;99.90;;;;;;4985231;28;20691;-67
2023/03/10 11:11:23;;;;;;;0.50;0.40;;;14.20;99.90;;;;;;4975923;28;20211;-67
2023/03/10 11:14:04;;;;;;;0.50;0.38;;;13.70;99.90;;;;;;4973472;28;20214;-67
2023/03/10 11:16:42;;;;;;;0.50;0.30;;;13.50;99.90;;;;;;4973175;28;20229;-67
2023/03/10 11:19:19;;;;;;;0.50;0.30;;;13.10;99.90;;;;;;4973338;28;20657;-66
2023/03/10 11:21:53;;;;;;;0.50;0.30;;;12.70;99.90;;;;;;4966147;28;20605;-68
2023/03/10 11:24:26;;;;;;;0.60;0.47;;;12.60;99.90;;;;;;4973003;28;20210;-67
2023/03/10 11:27:00;;;;;;;0.50;0.30;;;12.50;99.90;;;;;;4973464;28;20289;-67
2023/03/10 11:29:51;;;;;;;0.50;0.30;;;12.20;99.90;;;;;;4973008;28;20207;-67
2023/03/10 11:32:26;;;;;;;0.50;0.30;;;12.10;99.90;;;;;;4972798;28;20206;-67
2023/03/10 11:34:54;;;;;;;0.50;0.30;;;11.80;99.90;;;;;;4973101;28;20713;-67
2023/03/10 11:37:29;;;;;;;0.50;0.30;;;11.80;99.90;;;;;;4972862;28;20669;-67
2023/03/10 11:40:18;;;;;;;0.60;0.40;;;11.80;99.90;;;;;;4973070;28;20226;-67
2023/03/10 11:42:53;;;;;;;0.50;0.40;;;11.80;99.90;;;;;;4972534;28;20210;-67
2023/03/10 11:45:27;;;;;;;0.50;0.30;;;11.80;99.90;;;;;;4972715;28;20314;-67
2023/03/10 11:48:05;;;;;;;0.60;0.40;;;11.90;99.90;;;;;;4981044;28;20206;-67
2023/03/10 11:50:39;;;;;;;0.50;0.30;;;11.80;99.90;;;;;;4983114;28;20206;-67
2023/03/10 11:53:13;;;;;;;0.60;0.40;;;11.80;99.90;;;;;;4983905;28;20670;-67
2023/03/10 11:55:42;;;;;;;0.50;0.30;;;11.80;99.90;;;;;;4972681;28;20324;-67
2023/03/10 11:58:21;;;;;;;0.75;0.50;;;11.90;99.90;;;;;;4972821;28;20214;-67
2023/03/10 12:00:52;;;;;;;0.63;0.60;;;12.00;99.90;;;;;;4973941;28;20269;-67
2023/03/10 12:03:33;;;;;;;0.50;0.40;;;12.10;99.90;;;;;;4980947;28;20203;-67
2023/03/10 12:06:02;;;;;;;0.50;0.30;;;12.10;99.90;;;;;;4983984;28;20231;-67
2023/03/10 12:08:34;;;;;;;0.50;0.30;;;11.90;99.90;;;;;;4982185;28;20296;-66
2023/03/10 12:11:05;;;;;;;0.50;0.30;;;11.70;99.90;;;;;;4980712;28;20286;-66
2023/03/10 12:13:43;;;;;;;0.50;0.30;;;11.80;99.90;;;;;;4973121;28;20302;-66
2023/03/10 12:16:17;;;;;;;0.50;0.50;;;12.00;99.90;;;;;;4971944;28;20261;-67
2023/03/10 12:18:46;;;;;;;0.50;0.30;;;12.00;99.90;;;;;;4980430;28;20206;-66
2023/03/10 12:21:22;;;;;;;0.50;0.30;;;12.00;99.90;;;;;;4980753;28;20293;-67
2023/03/10 12:23:52;;;;;;;0.50;0.30;;;12.00;99.90;;;;;;4973290;28;20289;-67
2023/03/10 12:26:54;;;;;;;0.50;0.30;;;11.90;99.90;;;;;;4980476;28;20650;-66
2023/03/10 12:29:40;;;;;;;0.50;0.30;;;11.60;99.90;;;;;;4978849;28;20217;-66
2023/03/10 12:32:45;;;;;;;0.70;0.40;;;11.40;99.90;;;;;;4979927;28;20688;-67
2023/03/10 12:35:46;;;;;;;0.50;0.40;;;11.40;99.90;;;;;;4976164;28;20604;-66
2023/03/10 12:38:52;;;;;;;0.50;0.40;;;11.30;99.90;;;;;;4976995;28;20567;-66
2023/03/10 12:41:43;;;;;;;0.50;0.40;;;11.20;99.90;;;;;;4917292;29;20251;-66
2023/03/10 12:44:48;;;;;;;0.50;0.40;;;11.10;99.90;;;;;;4967297;28;20218;-66
2023/03/10 12:47:24;;;;;;;0.50;0.30;;;11.00;99.90;;;;;;4976560;28;20300;-67
2023/03/10 12:49:57;;;;;;;0.50;0.30;;;11.00;99.90;;;;;;4980098;28;20241;-66
2023/03/10 12:52:36;;;;;;;0.50;0.30;;;10.80;99.90;;;;;;4980434;28;20571;-67
2023/03/10 12:55:20;;;;;;;0.50;0.30;;;10.70;99.90;;;;;;4983417;28;20231;-67
2023/03/10 12:58:10;;;;;;;0.50;0.30;;;10.60;99.90;;;;;;4972697;28;20293;-67
2023/03/10 13:00:49;;;;;;;0.50;0.30;;;10.50;99.90;;;;;;4982320;28;20240;-66
2023/03/10 13:03:30;;;;;;;0.50;0.30;;;10.40;99.90;;;;;;4975457;28;20217;-67
2023/03/10 13:06:02;;;;;;;0.50;0.30;;;10.40;99.90;;;;;;4973736;28;20273;-67
2023/03/10 13:08:40;;;;;;;0.50;0.30;;;10.40;99.90;;;;;;4981179;28;20304;-67
2023/03/10 13:11:24;;;;;;;0.50;0.47;;;10.30;99.90;;;;;;4983246;28;20209;-66